createdAt,value
2018-08-31T00:02:20.909Z,2.03
2018-08-31T00:07:07.503Z,1.53
2018-08-31T00:09:47.248Z,2.10
2018-08-31T00:12:41.530Z,1.30
2018-08-31T00:15:11.541Z,1.40
2018-08-31T00:17:42.832Z,2.10
2018-08-31T00:20:13.860Z,1.50
2018-08-31T00:22:43.860Z,1.53
2018-08-31T00:25:24.614Z,1.53
2018-08-31T00:28:05.391Z,1.33
2018-08-31T00:30:46.156Z,1.70
2018-08-31T00:33:27.044Z,1.20
2018-08-31T00:37:25.534Z,1.67
2018-08-31T00:42:10.198Z,1.80
2018-08-31T00:45:45.128Z,2.10
2018-08-31T00:48:15.248Z,1.37
2018-08-31T00:50:45.501Z,1.23
2018-08-31T00:53:15.486Z,0.83
2018-08-31T00:55:45.531Z,1.80
2018-08-31T00:58:16.258Z,1.70
2018-08-31T01:00:46.565Z,1.10
2018-08-31T01:03:16.478Z,1.90
2018-08-31T01:05:46.817Z,1.80
2018-08-31T01:08:17.018Z,1.67
2018-08-31T01:10:47.117Z,1.57
2018-08-31T01:13:17.378Z,1.50
2018-08-31T01:15:47.380Z,1.20
2018-08-31T01:18:17.471Z,2.73
2018-08-31T01:20:47.625Z,1.80
2018-08-31T01:23:17.735Z,1.90
2018-08-31T01:25:47.951Z,1.53
2018-08-31T01:28:18.088Z,2.63
2018-08-31T01:30:48.292Z,1.27
2018-08-31T01:33:18.347Z,1.73
2018-08-31T01:35:48.417Z,1.63
2018-08-31T01:38:18.666Z,1.60
2018-08-31T01:40:48.876Z,1.73
2018-08-31T01:43:18.881Z,1.50
2018-08-31T01:45:48.973Z,2.07
2018-08-31T01:48:19.093Z,1.50
2018-08-31T01:50:54.200Z,1.53
2018-08-31T01:53:28.771Z,1.63
2018-08-31T01:55:59.029Z,1.50
2018-08-31T01:58:29.023Z,1.50
2018-08-31T02:00:59.032Z,1.30
2018-08-31T02:03:29.048Z,2.03
2018-08-31T02:05:59.169Z,0.90
2018-08-31T02:08:29.204Z,1.00
2018-08-31T02:10:59.357Z,2.03
2018-08-31T02:13:29.596Z,1.83
2018-08-31T02:15:59.770Z,1.37
2018-08-31T02:18:29.771Z,1.70
2018-08-31T02:20:59.893Z,2.20
2018-08-31T02:23:29.982Z,1.30
2018-08-31T02:26:00.288Z,1.50
2018-08-31T02:28:30.592Z,1.87
2018-08-31T02:31:00.728Z,1.57
2018-08-31T02:33:30.885Z,1.40
2018-08-31T02:36:01.168Z,1.50
2018-08-31T02:38:31.153Z,2.00
2018-08-31T02:41:01.139Z,1.80
2018-08-31T02:43:31.047Z,1.40
2018-08-31T02:46:01.193Z,1.20
2018-08-31T02:48:31.671Z,1.27
2018-08-31T02:51:01.724Z,1.50
2018-08-31T02:53:31.830Z,1.37
2018-08-31T02:56:02.087Z,1.50
2018-08-31T02:58:32.258Z,1.63
2018-08-31T03:01:02.696Z,2.10
2018-08-31T03:03:32.750Z,1.17
2018-08-31T03:06:03.249Z,1.80
2018-08-31T03:08:33.434Z,1.10
2018-08-31T03:11:03.631Z,1.57
2018-08-31T03:13:33.759Z,2.40
2018-08-31T03:16:03.752Z,1.60
2018-08-31T03:18:33.842Z,1.20
2018-08-31T03:21:03.949Z,1.43
2018-08-31T03:23:34.065Z,1.10
2018-08-31T03:26:04.346Z,1.53
2018-08-31T03:28:34.313Z,1.43
2018-08-31T03:31:04.442Z,2.20
2018-08-31T03:33:34.482Z,1.93
2018-08-31T03:36:04.597Z,0.90
2018-08-31T03:38:34.573Z,1.67
2018-08-31T03:41:04.658Z,1.13
2018-08-31T03:43:34.758Z,2.03
2018-08-31T03:46:04.858Z,0.93
2018-08-31T03:48:35.070Z,1.30
2018-08-31T03:51:05.230Z,1.63
2018-08-31T03:53:35.557Z,1.20
2018-08-31T03:56:05.594Z,1.20
2018-08-31T03:58:35.733Z,1.40
2018-08-31T04:01:05.968Z,0.93
2018-08-31T04:03:35.989Z,1.20
2018-08-31T04:06:06.280Z,1.00
2018-08-31T04:08:36.455Z,1.10
2018-08-31T04:11:06.558Z,0.93
2018-08-31T04:13:36.631Z,1.20
2018-08-31T04:16:06.810Z,2.00
2018-08-31T04:18:36.866Z,0.90
2018-08-31T04:21:06.961Z,1.67
2018-08-31T04:23:36.951Z,1.00
2018-08-31T04:26:07.056Z,1.57
2018-08-31T04:28:37.314Z,1.53
2018-08-31T04:31:07.315Z,1.40
2018-08-31T04:33:37.765Z,1.37
2018-08-31T04:36:07.750Z,1.20
2018-08-31T04:38:37.983Z,1.20
2018-08-31T04:41:08.041Z,2.07
2018-08-31T04:43:38.126Z,1.53
2018-08-31T04:46:08.344Z,1.37
2018-08-31T04:48:38.465Z,1.40
2018-08-31T04:51:08.360Z,1.13
2018-08-31T04:53:38.509Z,1.20
2018-08-31T04:56:08.516Z,1.10
2018-08-31T04:58:38.531Z,1.70
2018-08-31T05:01:08.710Z,1.40
2018-08-31T05:03:38.938Z,1.00
2018-08-31T05:06:09.089Z,1.33
2018-08-31T05:08:39.094Z,1.43
2018-08-31T05:11:09.185Z,1.53
2018-08-31T05:13:39.581Z,6.60
2018-08-31T05:16:09.676Z,6.47
2018-08-31T05:18:39.766Z,7.20
2018-08-31T05:21:10.442Z,5.80
2018-08-31T05:23:40.478Z,6.40
2018-08-31T05:26:10.658Z,5.70
2018-08-31T05:28:40.809Z,4.87
2018-08-31T05:31:11.137Z,5.00
2018-08-31T05:33:41.312Z,5.00
2018-08-31T05:36:11.537Z,4.37
2018-08-31T05:38:41.519Z,4.83
2018-08-31T05:41:11.561Z,4.17
2018-08-31T05:43:41.689Z,4.40
2018-08-31T05:46:11.818Z,4.57
2018-08-31T05:48:41.810Z,3.90
2018-08-31T05:51:12.041Z,3.90
2018-08-31T05:53:42.251Z,3.50
2018-08-31T05:56:12.179Z,3.60
2018-08-31T05:58:42.437Z,3.83
2018-08-31T06:01:12.557Z,3.60
2018-08-31T06:03:42.744Z,3.07
2018-08-31T06:06:12.776Z,3.33
2018-08-31T06:08:42.913Z,3.47
2018-08-31T06:11:13.009Z,2.60
2018-08-31T06:13:43.738Z,3.57
2018-08-31T06:16:15.547Z,2.87
2018-08-31T06:18:47.371Z,3.43
2018-08-31T06:21:19.793Z,3.40
2018-08-31T06:23:50.413Z,2.50
2018-08-31T06:26:20.850Z,3.20
2018-08-31T06:28:50.823Z,2.57
2018-08-31T06:31:20.813Z,2.60
2018-08-31T06:33:51.081Z,2.90
2018-08-31T06:36:21.390Z,3.13
2018-08-31T06:38:51.628Z,1.90
2018-08-31T06:41:21.590Z,2.63
2018-08-31T06:43:57.460Z,2.33
2018-08-31T06:46:34.703Z,3.33
2018-08-31T06:49:05.498Z,2.70
2018-08-31T06:51:35.360Z,2.40
2018-08-31T06:54:05.553Z,3.10
2018-08-31T06:56:35.744Z,2.70
2018-08-31T06:59:06.093Z,3.10
2018-08-31T07:01:35.958Z,3.23
2018-08-31T07:04:06.069Z,2.23
2018-08-31T07:06:36.164Z,2.90
2018-08-31T07:09:09.123Z,2.47
2018-08-31T07:11:39.712Z,2.77
2018-08-31T07:14:10.091Z,2.37
2018-08-31T07:16:40.289Z,2.73
2018-08-31T07:19:11.918Z,3.23
2018-08-31T07:21:42.647Z,3.20
2018-08-31T07:24:12.813Z,2.40
2018-08-31T07:26:43.123Z,2.50
2018-08-31T07:29:13.225Z,3.47
2018-08-31T07:31:43.507Z,3.17
2018-08-31T07:34:13.791Z,3.70
2018-08-31T07:36:44.038Z,2.70
2018-08-31T07:39:14.145Z,2.50
2018-08-31T07:41:44.199Z,3.10
2018-08-31T07:44:14.477Z,3.43
2018-08-31T07:46:52.281Z,3.20
2018-08-31T07:49:22.681Z,2.77
2018-08-31T07:51:52.654Z,3.10
2018-08-31T07:54:22.814Z,3.37
2018-08-31T07:56:52.860Z,2.97
2018-08-31T07:59:23.041Z,3.77
2018-08-31T08:01:53.084Z,2.50
2018-08-31T08:04:23.179Z,2.80
2018-08-31T08:06:53.326Z,2.53
2018-08-31T08:09:23.606Z,3.20
2018-08-31T08:11:53.618Z,3.40
2018-08-31T08:14:23.894Z,2.93
2018-08-31T08:16:54.019Z,3.40
2018-08-31T08:19:24.334Z,3.23
2018-08-31T08:21:54.505Z,2.80
2018-08-31T08:24:24.633Z,3.37
2018-08-31T08:26:54.957Z,3.10
2018-08-31T08:29:25.085Z,2.93
2018-08-31T08:31:55.193Z,3.17
2018-08-31T08:34:25.322Z,3.67
2018-08-31T08:36:55.482Z,3.07
2018-08-31T08:39:25.632Z,3.43
2018-08-31T08:41:55.757Z,3.60
2018-08-31T08:44:25.751Z,3.13
2018-08-31T08:46:56.045Z,2.97
2018-08-31T08:49:26.138Z,3.43
2018-08-31T08:51:56.091Z,3.10
2018-08-31T08:54:26.425Z,3.53
2018-08-31T08:56:56.746Z,3.00
2018-08-31T08:59:27.045Z,3.37
2018-08-31T09:01:57.293Z,3.10
2018-08-31T09:04:27.493Z,3.40
2018-08-31T09:06:57.830Z,3.27
2018-08-31T09:09:27.732Z,3.60
2018-08-31T09:11:57.953Z,3.50
2018-08-31T09:14:28.173Z,4.30
2018-08-31T09:16:58.146Z,3.73
2018-08-31T09:19:28.477Z,3.97
2018-08-31T09:21:59.194Z,3.50
2018-08-31T09:24:29.414Z,3.80
2018-08-31T09:26:59.453Z,4.47
2018-08-31T09:29:29.705Z,4.30
2018-08-31T09:32:04.035Z,4.37
2018-08-31T09:34:34.150Z,4.10
2018-08-31T09:37:04.403Z,2.87
2018-08-31T09:39:34.578Z,4.23
2018-08-31T09:42:04.669Z,3.77
2018-08-31T09:44:34.918Z,3.97
2018-08-31T09:47:05.066Z,4.57
2018-08-31T09:49:35.404Z,4.63
2018-08-31T09:52:05.726Z,4.37
2018-08-31T09:54:35.785Z,3.80
2018-08-31T09:57:06.112Z,3.57
2018-08-31T09:59:36.279Z,4.53
2018-08-31T10:02:10.987Z,3.50
2018-08-31T10:04:41.179Z,3.60
2018-08-31T10:07:11.126Z,4.50
2018-08-31T10:09:41.297Z,4.10
2018-08-31T10:12:11.366Z,4.17
2018-08-31T10:14:41.533Z,3.17
2018-08-31T10:17:11.665Z,3.87
2018-08-31T10:19:41.797Z,4.20
2018-08-31T10:22:12.208Z,2.60
2018-08-31T10:24:42.132Z,3.33
2018-08-31T10:27:12.177Z,3.83
2018-08-31T10:29:42.280Z,3.67
2018-08-31T10:32:12.461Z,3.00
2018-08-31T10:34:42.533Z,4.13
2018-08-31T10:37:12.772Z,4.40
2018-08-31T10:39:43.116Z,3.43
2018-08-31T10:42:13.252Z,3.70
2018-08-31T10:44:43.519Z,3.47
2018-08-31T10:47:13.762Z,4.03
2018-08-31T10:49:43.852Z,4.17
2018-08-31T10:52:14.280Z,3.40
2018-08-31T10:54:44.719Z,4.30
2018-08-31T10:57:14.932Z,2.93
2018-08-31T10:59:45.514Z,3.33
2018-08-31T11:02:16.093Z,3.80
2018-08-31T11:04:46.372Z,3.10
2018-08-31T11:07:16.450Z,3.73
2018-08-31T11:09:46.553Z,3.90
2018-08-31T11:12:16.709Z,3.60
2018-08-31T11:14:46.869Z,3.80
2018-08-31T11:17:17.013Z,3.63
2018-08-31T11:19:47.139Z,3.73
2018-08-31T11:22:17.396Z,3.17
2018-08-31T11:24:48.011Z,3.13
2018-08-31T11:27:18.104Z,3.70
2018-08-31T11:29:48.372Z,3.70
2018-08-31T11:32:18.700Z,3.67
2018-08-31T11:34:49.026Z,3.40
2018-08-31T11:37:19.284Z,3.20
2018-08-31T11:39:49.295Z,3.40
2018-08-31T11:42:19.821Z,3.67
2018-08-31T11:44:50.100Z,3.30
2018-08-31T11:47:20.449Z,3.43
2018-08-31T11:49:50.518Z,3.33
2018-08-31T11:52:21.036Z,3.70
2018-08-31T11:54:51.276Z,3.03
2018-08-31T11:57:21.390Z,3.30
2018-08-31T11:59:51.794Z,3.33
2018-08-31T12:02:22.078Z,3.00
2018-08-31T12:04:52.033Z,3.60
2018-08-31T12:07:22.375Z,4.67
2018-08-31T12:09:52.179Z,3.10
2018-08-31T12:12:22.466Z,3.10
2018-08-31T12:14:52.702Z,3.97
2018-08-31T12:17:22.658Z,3.50
2018-08-31T12:19:52.814Z,2.93
2018-08-31T12:22:23.149Z,3.17
2018-08-31T12:24:53.422Z,4.20
2018-08-31T12:27:23.720Z,3.03
2018-08-31T12:29:53.888Z,3.20
2018-08-31T12:32:24.129Z,3.40
2018-08-31T12:34:54.204Z,4.30
2018-08-31T12:37:24.671Z,3.37
2018-08-31T12:39:54.969Z,3.17
2018-08-31T12:42:25.136Z,4.10
2018-08-31T12:44:55.303Z,3.13
2018-08-31T12:47:25.440Z,3.53
2018-08-31T12:49:55.734Z,4.20
2018-08-31T12:52:25.842Z,3.87
2018-08-31T12:54:56.099Z,3.70
2018-08-31T12:57:26.398Z,3.10
2018-08-31T13:00:01.643Z,3.30
2018-08-31T13:02:32.421Z,3.80
2018-08-31T13:05:03.049Z,3.87
2018-08-31T13:07:33.108Z,3.37
2018-08-31T13:10:03.651Z,4.40
2018-08-31T13:12:34.699Z,2.97
2018-08-31T13:15:05.265Z,3.30
2018-08-31T13:17:35.472Z,3.47
2018-08-31T13:20:05.758Z,3.30
2018-08-31T13:22:36.030Z,3.63
2018-08-31T13:25:06.172Z,3.60
2018-08-31T13:27:36.806Z,3.87
2018-08-31T13:30:07.328Z,3.00
2018-08-31T13:32:37.346Z,3.10
2018-08-31T13:35:07.661Z,3.40
2018-08-31T13:37:37.947Z,3.40
2018-08-31T13:40:08.269Z,3.13
2018-08-31T13:42:38.429Z,3.77
2018-08-31T13:45:08.566Z,3.50
2018-08-31T13:47:38.798Z,3.20
2018-08-31T13:50:09.006Z,3.20
2018-08-31T13:52:39.416Z,4.07
2018-08-31T13:55:09.549Z,2.90
2018-08-31T13:57:39.707Z,3.10
2018-08-31T14:00:09.941Z,2.90
2018-08-31T14:02:40.110Z,3.70
2018-08-31T14:05:10.497Z,3.43
2018-08-31T14:07:40.889Z,3.00
2018-08-31T14:10:10.947Z,4.30
2018-08-31T14:12:41.265Z,31.00
2018-08-31T14:15:11.595Z,18.00
2018-08-31T14:17:41.754Z,10.93
2018-08-31T14:20:11.911Z,9.27
2018-08-31T14:22:42.122Z,8.37
2018-08-31T14:25:12.398Z,6.73
2018-08-31T14:27:42.655Z,5.90
2018-08-31T14:30:12.791Z,5.60
2018-08-31T14:32:42.898Z,5.50
2018-08-31T14:35:13.131Z,5.47
2018-08-31T14:37:43.332Z,6.50
2018-08-31T14:40:13.388Z,6.10
2018-08-31T14:42:43.711Z,5.93
2018-08-31T14:45:14.049Z,4.27
2018-08-31T14:47:44.148Z,4.77
2018-08-31T14:50:14.335Z,4.33
2018-08-31T14:52:44.442Z,4.90
2018-08-31T14:55:14.942Z,4.60
2018-08-31T14:57:45.096Z,5.30
2018-08-31T15:00:15.361Z,3.93
2018-08-31T15:02:45.430Z,3.57
2018-08-31T15:05:15.426Z,3.53
2018-08-31T15:07:45.498Z,3.10
2018-08-31T15:10:15.836Z,8.70
2018-08-31T15:12:46.095Z,6.23
2018-08-31T15:15:16.266Z,6.27
2018-08-31T15:17:46.616Z,28.57
2018-08-31T15:20:16.735Z,17.17
2018-08-31T15:22:46.725Z,18.10
2018-08-31T15:25:16.833Z,14.50
2018-08-31T15:27:46.970Z,13.70
2018-08-31T15:30:17.172Z,12.10
2018-08-31T15:32:47.282Z,10.50
2018-08-31T15:35:17.274Z,8.70
2018-08-31T15:37:47.354Z,9.07
2018-08-31T15:40:17.306Z,7.63
2018-08-31T15:42:47.625Z,7.87
2018-08-31T15:45:17.745Z,5.50
2018-08-31T15:47:48.078Z,5.50
2018-08-31T15:50:18.162Z,5.27
2018-08-31T15:52:48.321Z,4.67
2018-08-31T15:55:18.613Z,4.50
2018-08-31T15:57:48.891Z,4.23
2018-08-31T16:00:18.894Z,4.27
2018-08-31T16:02:48.924Z,4.27
2018-08-31T16:05:19.967Z,3.77
2018-08-31T16:07:50.175Z,4.00
2018-08-31T16:10:20.318Z,3.43
2018-08-31T16:12:51.971Z,3.20
2018-08-31T16:15:22.082Z,3.13
2018-08-31T16:17:55.570Z,3.70
2018-08-31T16:20:26.782Z,3.17
2018-08-31T16:22:56.910Z,2.00
2018-08-31T16:25:27.364Z,2.80
2018-08-31T16:27:57.350Z,2.57
2018-08-31T16:30:30.341Z,2.63
2018-08-31T16:33:00.537Z,2.47
2018-08-31T16:35:30.640Z,2.53
2018-08-31T16:38:00.755Z,2.80
2018-08-31T16:40:30.763Z,2.20
2018-08-31T16:43:00.953Z,2.23
2018-08-31T16:45:31.002Z,2.07
2018-08-31T16:48:01.334Z,2.23
2018-08-31T16:50:31.701Z,2.10
2018-08-31T16:53:01.788Z,1.77
2018-08-31T16:55:31.937Z,2.73
2018-08-31T16:58:02.306Z,1.80
2018-08-31T17:00:32.315Z,2.70
2018-08-31T17:03:02.708Z,2.43
2018-08-31T17:05:33.242Z,1.90
2018-08-31T17:08:03.298Z,1.53
2018-08-31T17:10:33.472Z,1.93
2018-08-31T17:13:03.746Z,2.37
2018-08-31T17:15:34.159Z,1.57
2018-08-31T17:18:04.478Z,2.43
2018-08-31T17:20:34.604Z,1.60
2018-08-31T17:23:04.858Z,1.80
2018-08-31T17:25:35.166Z,2.20
2018-08-31T17:28:11.061Z,1.97
2018-08-31T17:30:41.125Z,2.07
2018-08-31T17:33:18.411Z,1.90
2018-08-31T17:35:57.313Z,2.03
2018-08-31T17:38:27.494Z,1.63
2018-08-31T17:40:59.689Z,2.00
2018-08-31T17:43:29.987Z,2.37
2018-08-31T17:46:00.206Z,1.77
2018-08-31T17:48:30.336Z,1.20
2018-08-31T17:51:00.407Z,1.60
2018-08-31T17:53:30.578Z,1.53
2018-08-31T17:56:00.865Z,1.50
2018-08-31T17:58:31.131Z,1.63
2018-08-31T18:01:01.286Z,2.10
2018-08-31T18:03:31.303Z,1.43
2018-08-31T18:06:01.504Z,1.97
2018-08-31T18:08:31.805Z,2.23
2018-08-31T18:11:02.731Z,2.20
2018-08-31T18:13:33.021Z,2.20
2018-08-31T18:16:03.349Z,2.33
2018-08-31T18:18:33.609Z,1.53
2018-08-31T18:21:03.705Z,2.40
2018-08-31T18:23:33.825Z,1.60
2018-08-31T18:26:04.050Z,2.40
2018-08-31T18:28:34.344Z,2.33
2018-08-31T18:31:04.367Z,1.53
2018-08-31T18:33:34.577Z,2.37
2018-08-31T18:36:04.737Z,1.93
2018-08-31T18:38:35.052Z,1.90
2018-08-31T18:41:05.434Z,1.90
2018-08-31T18:43:35.554Z,2.37
2018-08-31T18:46:05.730Z,1.97
2018-08-31T18:48:35.826Z,1.83
2018-08-31T18:51:06.117Z,2.23
2018-08-31T18:53:36.377Z,1.83
2018-08-31T18:56:06.731Z,1.90
2018-08-31T18:58:36.877Z,1.73
2018-08-31T19:01:07.182Z,2.47
2018-08-31T19:03:37.434Z,2.10
2018-08-31T19:06:07.806Z,2.00
2018-08-31T19:08:38.122Z,1.77
2018-08-31T19:11:08.311Z,1.50
2018-08-31T19:13:38.444Z,1.90
2018-08-31T19:16:08.581Z,3.10
2018-08-31T19:18:38.709Z,1.43
2018-08-31T19:21:08.977Z,1.80
2018-08-31T19:23:39.317Z,1.50
2018-08-31T19:26:09.903Z,1.80
2018-08-31T19:28:40.171Z,1.80
2018-08-31T19:31:10.346Z,1.70
2018-08-31T19:33:40.479Z,1.37
2018-08-31T19:36:10.557Z,1.50
2018-08-31T19:38:40.754Z,1.83
2018-08-31T19:41:11.026Z,1.60
2018-08-31T19:43:41.127Z,2.23
2018-08-31T19:46:11.182Z,1.90
2018-08-31T19:48:41.342Z,1.60
2018-08-31T19:51:11.555Z,2.20
2018-08-31T19:53:41.953Z,1.63
2018-08-31T19:56:12.044Z,2.00
2018-08-31T19:58:42.253Z,5.20
2018-08-31T20:01:12.489Z,8.57
2018-08-31T20:03:42.758Z,6.00
2018-08-31T20:06:12.722Z,3.43
2018-08-31T20:08:42.890Z,2.33
2018-08-31T20:11:13.162Z,2.37
2018-08-31T20:13:43.530Z,2.10
2018-08-31T20:16:13.639Z,2.40
2018-08-31T20:18:43.795Z,2.00
2018-08-31T20:21:13.906Z,1.93
2018-08-31T20:23:44.081Z,2.43
2018-08-31T20:26:14.109Z,1.73
2018-08-31T20:28:44.369Z,1.70
2018-08-31T20:31:14.469Z,2.40
2018-08-31T20:33:44.607Z,2.60
2018-08-31T20:36:15.009Z,2.00
2018-08-31T20:38:45.361Z,1.40
2018-08-31T20:41:15.409Z,2.10
2018-08-31T20:43:45.616Z,1.90
2018-08-31T20:46:15.731Z,2.20
2018-08-31T20:48:45.830Z,1.83
2018-08-31T20:51:16.088Z,2.40
2018-08-31T20:53:46.214Z,1.47
2018-08-31T20:56:16.368Z,2.00
2018-08-31T20:58:46.620Z,2.07
2018-08-31T21:01:16.914Z,2.40
2018-08-31T21:03:47.180Z,1.70
2018-08-31T21:06:17.270Z,2.00
2018-08-31T21:08:47.418Z,1.70
2018-08-31T21:11:17.795Z,1.83
2018-08-31T21:13:47.830Z,1.90
2018-08-31T21:16:18.114Z,1.70
2018-08-31T21:18:48.213Z,2.10
2018-08-31T21:21:18.391Z,2.03
2018-08-31T21:23:48.533Z,1.33
2018-08-31T21:26:18.788Z,2.43
2018-08-31T21:28:48.957Z,1.90
2018-08-31T21:31:19.199Z,2.53
2018-08-31T21:33:49.364Z,1.67
2018-08-31T21:36:19.502Z,2.33
2018-08-31T21:38:49.720Z,3.03
2018-08-31T21:41:19.738Z,2.23
2018-08-31T21:43:49.861Z,2.10
2018-08-31T21:46:20.143Z,2.20
2018-08-31T21:48:50.475Z,1.50
2018-08-31T21:51:20.588Z,1.50
2018-08-31T21:53:50.731Z,1.80
2018-08-31T21:56:20.981Z,1.60
2018-08-31T21:58:50.924Z,1.67
2018-08-31T22:01:39.511Z,1.83
2018-08-31T22:04:11.300Z,1.73
2018-08-31T22:06:41.406Z,1.70
2018-08-31T22:09:11.763Z,1.50
2018-08-31T22:11:41.849Z,1.57
2018-08-31T22:14:11.995Z,1.90
2018-08-31T22:16:42.235Z,2.50
2018-08-31T22:19:12.548Z,1.40
2018-08-31T22:21:42.641Z,1.70
2018-08-31T22:24:12.706Z,1.70
2018-08-31T22:26:42.765Z,1.60
2018-08-31T22:29:12.841Z,2.50
2018-08-31T22:31:42.995Z,2.20
2018-08-31T22:34:13.130Z,1.37
2018-08-31T22:36:43.189Z,1.80
2018-08-31T22:39:13.384Z,2.50
2018-08-31T22:41:43.591Z,1.37
2018-08-31T22:44:13.669Z,1.90
2018-08-31T22:46:43.712Z,2.50
2018-08-31T22:49:13.954Z,1.67
2018-08-31T22:51:44.080Z,2.10
2018-08-31T22:54:14.213Z,1.47
2018-08-31T22:56:44.231Z,1.73
2018-08-31T22:59:14.290Z,1.57
2018-08-31T23:01:44.561Z,1.87
2018-08-31T23:04:14.898Z,1.93
2018-08-31T23:06:45.195Z,1.93
2018-08-31T23:09:15.101Z,1.70
2018-08-31T23:11:45.142Z,1.77
2018-08-31T23:14:15.222Z,1.50
2018-08-31T23:16:45.367Z,1.50
2018-08-31T23:19:15.481Z,1.20
2018-08-31T23:21:45.671Z,1.70
2018-08-31T23:24:15.864Z,1.80
2018-08-31T23:26:46.021Z,1.30
2018-08-31T23:29:16.286Z,1.90
2018-08-31T23:31:46.406Z,1.80
2018-08-31T23:34:16.534Z,1.70
2018-08-31T23:36:46.725Z,1.80
2018-08-31T23:39:16.762Z,1.47
2018-08-31T23:41:47.081Z,1.73
2018-08-31T23:44:17.110Z,1.70
2018-08-31T23:46:47.232Z,1.57
2018-08-31T23:49:17.291Z,1.67
2018-08-31T23:51:47.394Z,1.83
2018-08-31T23:54:17.724Z,1.50
2018-08-31T23:56:47.793Z,1.80
2018-08-31T23:59:17.908Z,1.93
